sensor_id;sensor_type;location;lat;lon;timestamp;P1;durP1;ratioP1;P2;durP2;ratioP2
75096;SDS011;63684;47.964;11.186;2023-02-15T00:01:20;17.20;;;12.37;;
75096;SDS011;63684;47.964;11.186;2023-02-15T00:03:47;18.37;;;11.87;;
75096;SDS011;63684;47.964;11.186;2023-02-15T00:06:13;15.57;;;11.17;;
75096;SDS011;63684;47.964;11.186;2023-02-15T00:08:39;16.67;;;11.77;;
75096;SDS011;63684;47.964;11.186;2023-02-15T00:11:05;19.00;;;11.63;;
75096;SDS011;63684;47.964;11.186;2023-02-15T00:13:40;15.97;;;11.27;;
75096;SDS011;63684;47.964;11.186;2023-02-15T00:16:09;21.60;;;11.63;;
75096;SDS011;63684;47.964;11.186;2023-02-15T00:18:37;20.47;;;12.73;;
75096;SDS011;63684;47.964;11.186;2023-02-15T00:21:07;17.13;;;12.63;;
75096;SDS011;63684;47.964;11.186;2023-02-15T00:23:34;18.80;;;12.63;;
75096;SDS011;63684;47.964;11.186;2023-02-15T00:26:06;18.67;;;11.57;;
75096;SDS011;63684;47.964;11.186;2023-02-15T00:28:33;23.20;;;12.77;;
75096;SDS011;63684;47.964;11.186;2023-02-15T00:31:16;19.70;;;12.73;;
75096;SDS011;63684;47.964;11.186;2023-02-15T00:33:42;19.47;;;11.43;;
75096;SDS011;63684;47.964;11.186;2023-02-15T00:36:08;18.77;;;12.17;;
75096;SDS011;63684;47.964;11.186;2023-02-15T00:38:36;16.10;;;11.30;;
75096;SDS011;63684;47.964;11.186;2023-02-15T00:41:03;17.63;;;11.63;;
75096;SDS011;63684;47.964;11.186;2023-02-15T00:43:30;18.93;;;13.23;;
75096;SDS011;63684;47.964;11.186;2023-02-15T00:45:57;18.77;;;12.97;;
75096;SDS011;63684;47.964;11.186;2023-02-15T00:48:23;21.00;;;11.80;;
75096;SDS011;63684;47.964;11.186;2023-02-15T00:50:49;22.90;;;12.40;;
75096;SDS011;63684;47.964;11.186;2023-02-15T00:53:15;18.53;;;12.27;;
75096;SDS011;63684;47.964;11.186;2023-02-15T00:55:40;20.43;;;12.93;;
75096;SDS011;63684;47.964;11.186;2023-02-15T00:58:06;19.07;;;12.10;;
75096;SDS011;63684;47.964;11.186;2023-02-15T01:00:33;21.00;;;12.80;;
75096;SDS011;63684;47.964;11.186;2023-02-15T01:02:58;18.40;;;11.97;;
75096;SDS011;63684;47.964;11.186;2023-02-15T01:05:24;19.93;;;12.67;;
75096;SDS011;63684;47.964;11.186;2023-02-15T01:07:49;17.73;;;11.10;;
75096;SDS011;63684;47.964;11.186;2023-02-15T01:10:15;20.50;;;11.77;;
75096;SDS011;63684;47.964;11.186;2023-02-15T01:12:40;22.63;;;13.50;;
75096;SDS011;63684;47.964;11.186;2023-02-15T01:15:06;22.03;;;13.33;;
75096;SDS011;63684;47.964;11.186;2023-02-15T01:17:32;23.93;;;12.07;;
75096;SDS011;63684;47.964;11.186;2023-02-15T01:19:57;18.80;;;11.73;;
75096;SDS011;63684;47.964;11.186;2023-02-15T01:22:24;16.13;;;12.00;;
75096;SDS011;63684;47.964;11.186;2023-02-15T01:24:50;18.17;;;12.17;;
75096;SDS011;63684;47.964;11.186;2023-02-15T01:27:15;18.73;;;12.30;;
75096;SDS011;63684;47.964;11.186;2023-02-15T01:29:42;18.17;;;11.97;;
75096;SDS011;63684;47.964;11.186;2023-02-15T01:32:07;18.87;;;11.73;;
75096;SDS011;63684;47.964;11.186;2023-02-15T01:34:33;17.87;;;11.93;;
75096;SDS011;63684;47.964;11.186;2023-02-15T01:36:58;16.00;;;11.33;;
75096;SDS011;63684;47.964;11.186;2023-02-15T01:39:24;17.40;;;11.20;;
75096;SDS011;63684;47.964;11.186;2023-02-15T01:41:50;15.67;;;10.87;;
75096;SDS011;63684;47.964;11.186;2023-02-15T01:47:37;16.77;;;11.33;;
75096;SDS011;63684;47.964;11.186;2023-02-15T01:52:33;20.80;;;12.20;;
75096;SDS011;63684;47.964;11.186;2023-02-15T01:55:00;28.73;;;13.00;;
75096;SDS011;63684;47.964;11.186;2023-02-15T01:57:28;58.57;;;14.10;;
75096;SDS011;63684;47.964;11.186;2023-02-15T01:59:55;40.30;;;14.43;;
75096;SDS011;63684;47.964;11.186;2023-02-15T02:02:22;27.33;;;13.23;;
75096;SDS011;63684;47.964;11.186;2023-02-15T02:04:52;26.63;;;13.97;;
75096;SDS011;63684;47.964;11.186;2023-02-15T02:07:21;33.17;;;14.17;;
75096;SDS011;63684;47.964;11.186;2023-02-15T02:09:48;64.03;;;15.83;;
75096;SDS011;63684;47.964;11.186;2023-02-15T02:12:14;32.73;;;15.67;;
75096;SDS011;63684;47.964;11.186;2023-02-15T02:14:41;31.57;;;16.23;;
75096;SDS011;63684;47.964;11.186;2023-02-15T02:19:52;32.93;;;16.43;;
75096;SDS011;63684;47.964;11.186;2023-02-15T02:27:39;33.43;;;17.10;;
75096;SDS011;63684;47.964;11.186;2023-02-15T02:30:33;50.90;;;19.37;;
75096;SDS011;63684;47.964;11.186;2023-02-15T02:44:24;53.47;;;17.73;;
75096;SDS011;63684;47.964;11.186;2023-02-15T02:46:46;35.10;;;15.77;;
75096;SDS011;63684;47.964;11.186;2023-02-15T02:49:15;32.40;;;17.33;;
75096;SDS011;63684;47.964;11.186;2023-02-15T02:51:41;46.00;;;17.23;;
75096;SDS011;63684;47.964;11.186;2023-02-15T02:54:08;53.40;;;16.87;;
75096;SDS011;63684;47.964;11.186;2023-02-15T02:56:39;57.67;;;16.60;;
75096;SDS011;63684;47.964;11.186;2023-02-15T02:59:09;70.30;;;15.93;;
75096;SDS011;63684;47.964;11.186;2023-02-15T03:01:39;53.13;;;15.57;;
75096;SDS011;63684;47.964;11.186;2023-02-15T03:04:10;128.60;;;19.27;;
75096;SDS011;63684;47.964;11.186;2023-02-15T03:06:44;46.90;;;16.50;;
75096;SDS011;63684;47.964;11.186;2023-02-15T03:09:14;40.83;;;14.73;;
75096;SDS011;63684;47.964;11.186;2023-02-15T03:11:43;67.03;;;16.50;;
75096;SDS011;63684;47.964;11.186;2023-02-15T03:14:10;92.87;;;15.97;;
75096;SDS011;63684;47.964;11.186;2023-02-15T03:16:36;120.37;;;16.07;;
75096;SDS011;63684;47.964;11.186;2023-02-15T03:19:08;123.53;;;16.47;;
75096;SDS011;63684;47.964;11.186;2023-02-15T03:24:12;200.93;;;19.27;;
75096;SDS011;63684;47.964;11.186;2023-02-15T03:26:39;152.43;;;17.30;;
75096;SDS011;63684;47.964;11.186;2023-02-15T03:29:07;130.97;;;18.20;;
75096;SDS011;63684;47.964;11.186;2023-02-15T03:31:35;122.97;;;17.37;;
75096;SDS011;63684;47.964;11.186;2023-02-15T03:34:03;141.47;;;18.93;;
75096;SDS011;63684;47.964;11.186;2023-02-15T03:44:29;91.27;;;16.83;;
75096;SDS011;63684;47.964;11.186;2023-02-15T03:46:58;91.57;;;17.00;;
75096;SDS011;63684;47.964;11.186;2023-02-15T03:52:01;100.90;;;16.83;;
75096;SDS011;63684;47.964;11.186;2023-02-15T03:54:28;103.83;;;18.33;;
75096;SDS011;63684;47.964;11.186;2023-02-15T03:57:19;53.17;;;15.17;;
75096;SDS011;63684;47.964;11.186;2023-02-15T04:00:14;80.93;;;17.20;;
75096;SDS011;63684;47.964;11.186;2023-02-15T04:05:40;55.87;;;16.13;;
75096;SDS011;63684;47.964;11.186;2023-02-15T04:08:06;117.23;;;16.20;;
75096;SDS011;63684;47.964;11.186;2023-02-15T04:10:32;167.43;;;18.07;;
75096;SDS011;63684;47.964;11.186;2023-02-15T04:13:17;125.07;;;17.97;;
75096;SDS011;63684;47.964;11.186;2023-02-15T04:15:42;222.33;;;18.60;;
75096;SDS011;63684;47.964;11.186;2023-02-15T04:18:27;109.17;;;16.30;;
75096;SDS011;63684;47.964;11.186;2023-02-15T04:21:10;106.30;;;16.17;;
75096;SDS011;63684;47.964;11.186;2023-02-15T04:23:54;114.40;;;16.37;;
75096;SDS011;63684;47.964;11.186;2023-02-15T04:26:39;128.33;;;14.83;;
75096;SDS011;63684;47.964;11.186;2023-02-15T04:29:04;77.13;;;13.17;;
75096;SDS011;63684;47.964;11.186;2023-02-15T04:31:29;37.40;;;11.37;;
75096;SDS011;63684;47.964;11.186;2023-02-15T04:33:55;65.30;;;12.57;;
75096;SDS011;63684;47.964;11.186;2023-02-15T04:36:20;37.90;;;14.13;;
75096;SDS011;63684;47.964;11.186;2023-02-15T04:38:46;50.03;;;11.40;;
75096;SDS011;63684;47.964;11.186;2023-02-15T04:41:11;21.27;;;11.00;;
75096;SDS011;63684;47.964;11.186;2023-02-15T04:43:38;32.47;;;10.50;;
75096;SDS011;63684;47.964;11.186;2023-02-15T04:46:03;25.37;;;11.20;;
75096;SDS011;63684;47.964;11.186;2023-02-15T04:48:29;16.13;;;10.33;;
75096;SDS011;63684;47.964;11.186;2023-02-15T04:50:54;13.27;;;9.70;;
75096;SDS011;63684;47.964;11.186;2023-02-15T04:53:20;15.10;;;10.03;;
75096;SDS011;63684;47.964;11.186;2023-02-15T04:55:45;28.10;;;10.77;;
75096;SDS011;63684;47.964;11.186;2023-02-15T04:58:11;18.50;;;11.30;;
75096;SDS011;63684;47.964;11.186;2023-02-15T05:00:36;22.90;;;11.70;;
75096;SDS011;63684;47.964;11.186;2023-02-15T05:03:02;35.27;;;11.63;;
75096;SDS011;63684;47.964;11.186;2023-02-15T05:05:27;24.63;;;11.60;;
75096;SDS011;63684;47.964;11.186;2023-02-15T05:07:53;52.83;;;13.30;;
75096;SDS011;63684;47.964;11.186;2023-02-15T05:10:19;73.27;;;15.80;;
75096;SDS011;63684;47.964;11.186;2023-02-15T05:12:44;43.20;;;12.73;;
75096;SDS011;63684;47.964;11.186;2023-02-15T05:15:09;37.07;;;11.77;;
75096;SDS011;63684;47.964;11.186;2023-02-15T05:17:35;36.57;;;11.03;;
75096;SDS011;63684;47.964;11.186;2023-02-15T05:20:00;28.93;;;11.23;;
75096;SDS011;63684;47.964;11.186;2023-02-15T05:22:26;19.73;;;10.30;;
75096;SDS011;63684;47.964;11.186;2023-02-15T05:24:51;14.20;;;10.13;;
75096;SDS011;63684;47.964;11.186;2023-02-15T05:27:35;30.67;;;11.60;;
75096;SDS011;63684;47.964;11.186;2023-02-15T05:30:19;25.73;;;10.87;;
75096;SDS011;63684;47.964;11.186;2023-02-15T05:32:45;24.83;;;10.03;;
75096;SDS011;63684;47.964;11.186;2023-02-15T05:35:13;17.33;;;11.03;;
75096;SDS011;63684;47.964;11.186;2023-02-15T05:37:40;24.13;;;10.27;;
75096;SDS011;63684;47.964;11.186;2023-02-15T05:40:05;37.87;;;12.83;;
75096;SDS011;63684;47.964;11.186;2023-02-15T05:42:32;51.90;;;11.77;;
75096;SDS011;63684;47.964;11.186;2023-02-15T05:44:57;30.83;;;10.57;;
75096;SDS011;63684;47.964;11.186;2023-02-15T05:47:23;32.17;;;11.47;;
75096;SDS011;63684;47.964;11.186;2023-02-15T05:49:48;25.17;;;10.40;;
75096;SDS011;63684;47.964;11.186;2023-02-15T05:52:13;15.90;;;9.70;;
75096;SDS011;63684;47.964;11.186;2023-02-15T05:54:39;12.70;;;9.33;;
75096;SDS011;63684;47.964;11.186;2023-02-15T05:57:04;10.53;;;9.20;;
75096;SDS011;63684;47.964;11.186;2023-02-15T05:59:30;10.87;;;7.90;;
75096;SDS011;63684;47.964;11.186;2023-02-15T06:01:55;25.87;;;9.13;;
75096;SDS011;63684;47.964;11.186;2023-02-15T06:04:21;19.63;;;9.83;;
75096;SDS011;63684;47.964;11.186;2023-02-15T06:06:46;15.60;;;10.47;;
75096;SDS011;63684;47.964;11.186;2023-02-15T06:09:11;13.87;;;9.80;;
75096;SDS011;63684;47.964;11.186;2023-02-15T06:11:37;16.60;;;9.60;;
75096;SDS011;63684;47.964;11.186;2023-02-15T06:14:03;15.93;;;9.07;;
75096;SDS011;63684;47.964;11.186;2023-02-15T06:16:28;11.03;;;8.87;;
75096;SDS011;63684;47.964;11.186;2023-02-15T06:18:54;10.57;;;8.57;;
75096;SDS011;63684;47.964;11.186;2023-02-15T06:21:19;10.40;;;7.93;;
75096;SDS011;63684;47.964;11.186;2023-02-15T06:23:45;9.00;;;7.20;;
75096;SDS011;63684;47.964;11.186;2023-02-15T06:26:10;11.17;;;8.13;;
75096;SDS011;63684;47.964;11.186;2023-02-15T06:28:36;8.00;;;7.20;;
75096;SDS011;63684;47.964;11.186;2023-02-15T06:31:02;9.10;;;7.53;;
75096;SDS011;63684;47.964;11.186;2023-02-15T06:33:28;9.87;;;7.73;;
75096;SDS011;63684;47.964;11.186;2023-02-15T06:35:55;10.30;;;8.03;;
75096;SDS011;63684;47.964;11.186;2023-02-15T06:38:21;10.73;;;8.30;;
75096;SDS011;63684;47.964;11.186;2023-02-15T06:40:47;11.40;;;8.23;;
75096;SDS011;63684;47.964;11.186;2023-02-15T06:43:13;10.83;;;8.07;;
75096;SDS011;63684;47.964;11.186;2023-02-15T06:45:38;10.03;;;8.00;;
75096;SDS011;63684;47.964;11.186;2023-02-15T06:48:04;9.27;;;7.60;;
75096;SDS011;63684;47.964;11.186;2023-02-15T06:50:32;11.13;;;8.33;;
75096;SDS011;63684;47.964;11.186;2023-02-15T06:52:57;12.90;;;9.03;;
75096;SDS011;63684;47.964;11.186;2023-02-15T06:55:23;13.30;;;9.33;;
75096;SDS011;63684;47.964;11.186;2023-02-15T06:57:49;12.57;;;7.90;;
75096;SDS011;63684;47.964;11.186;2023-02-15T07:00:15;11.37;;;8.53;;
75096;SDS011;63684;47.964;11.186;2023-02-15T07:02:40;11.37;;;8.77;;
75096;SDS011;63684;47.964;11.186;2023-02-15T07:05:06;10.73;;;8.30;;
75096;SDS011;63684;47.964;11.186;2023-02-15T07:07:31;12.13;;;8.77;;
75096;SDS011;63684;47.964;11.186;2023-02-15T07:09:57;14.47;;;8.83;;
75096;SDS011;63684;47.964;11.186;2023-02-15T07:12:22;11.17;;;7.80;;
75096;SDS011;63684;47.964;11.186;2023-02-15T07:15:06;12.57;;;9.00;;
75096;SDS011;63684;47.964;11.186;2023-02-15T07:17:34;12.73;;;9.50;;
75096;SDS011;63684;47.964;11.186;2023-02-15T07:20:00;13.07;;;9.00;;
75096;SDS011;63684;47.964;11.186;2023-02-15T07:22:26;14.07;;;8.53;;
75096;SDS011;63684;47.964;11.186;2023-02-15T07:24:52;12.63;;;9.17;;
75096;SDS011;63684;47.964;11.186;2023-02-15T07:27:20;13.67;;;9.50;;
75096;SDS011;63684;47.964;11.186;2023-02-15T07:29:46;11.30;;;8.80;;
75096;SDS011;63684;47.964;11.186;2023-02-15T07:32:11;14.37;;;10.30;;
75096;SDS011;63684;47.964;11.186;2023-02-15T07:34:37;12.33;;;9.43;;
75096;SDS011;63684;47.964;11.186;2023-02-15T07:37:02;13.93;;;9.83;;
75096;SDS011;63684;47.964;11.186;2023-02-15T07:39:29;11.67;;;8.97;;
75096;SDS011;63684;47.964;11.186;2023-02-15T07:41:55;14.07;;;9.70;;
75096;SDS011;63684;47.964;11.186;2023-02-15T07:44:20;12.00;;;9.47;;
75096;SDS011;63684;47.964;11.186;2023-02-15T07:46:45;14.90;;;9.77;;
75096;SDS011;63684;47.964;11.186;2023-02-15T07:49:11;13.67;;;9.90;;
75096;SDS011;63684;47.964;11.186;2023-02-15T07:51:36;14.93;;;10.10;;
75096;SDS011;63684;47.964;11.186;2023-02-15T07:54:02;13.27;;;10.00;;
75096;SDS011;63684;47.964;11.186;2023-02-15T07:56:27;23.67;;;10.57;;
75096;SDS011;63684;47.964;11.186;2023-02-15T07:58:53;13.03;;;9.77;;
75096;SDS011;63684;47.964;11.186;2023-02-15T08:03:53;14.23;;;9.73;;
75096;SDS011;63684;47.964;11.186;2023-02-15T08:06:19;16.00;;;10.47;;
75096;SDS011;63684;47.964;11.186;2023-02-15T08:08:45;12.30;;;10.07;;
75096;SDS011;63684;47.964;11.186;2023-02-15T08:14:06;13.23;;;10.03;;
75096;SDS011;63684;47.964;11.186;2023-02-15T08:16:34;15.30;;;9.57;;
75096;SDS011;63684;47.964;11.186;2023-02-15T08:19:03;16.53;;;11.33;;
75096;SDS011;63684;47.964;11.186;2023-02-15T08:21:30;17.93;;;11.87;;
75096;SDS011;63684;47.964;11.186;2023-02-15T08:23:57;17.90;;;11.60;;
75096;SDS011;63684;47.964;11.186;2023-02-15T08:26:23;17.67;;;12.73;;
75096;SDS011;63684;47.964;11.186;2023-02-15T08:28:48;16.43;;;12.40;;
75096;SDS011;63684;47.964;11.186;2023-02-15T08:31:15;17.40;;;11.97;;
75096;SDS011;63684;47.964;11.186;2023-02-15T08:33:42;17.77;;;10.70;;
75096;SDS011;63684;47.964;11.186;2023-02-15T08:36:12;20.33;;;10.87;;
75096;SDS011;63684;47.964;11.186;2023-02-15T08:38:39;16.83;;;11.10;;
75096;SDS011;63684;47.964;11.186;2023-02-15T08:41:24;16.27;;;10.37;;
75096;SDS011;63684;47.964;11.186;2023-02-15T08:43:52;14.47;;;10.13;;
75096;SDS011;63684;47.964;11.186;2023-02-15T08:46:18;13.37;;;9.63;;
75096;SDS011;63684;47.964;11.186;2023-02-15T08:48:44;16.20;;;8.77;;
75096;SDS011;63684;47.964;11.186;2023-02-15T08:51:14;10.47;;;7.87;;
75096;SDS011;63684;47.964;11.186;2023-02-15T08:53:54;9.53;;;7.67;;
75096;SDS011;63684;47.964;11.186;2023-02-15T08:56:22;9.40;;;6.93;;
75096;SDS011;63684;47.964;11.186;2023-02-15T08:58:49;7.47;;;6.10;;
75096;SDS011;63684;47.964;11.186;2023-02-15T09:01:18;9.17;;;6.90;;
75096;SDS011;63684;47.964;11.186;2023-02-15T09:03:46;8.60;;;6.57;;
75096;SDS011;63684;47.964;11.186;2023-02-15T09:06:13;7.63;;;6.13;;
75096;SDS011;63684;47.964;11.186;2023-02-15T09:08:39;6.43;;;5.57;;
75096;SDS011;63684;47.964;11.186;2023-02-15T09:11:09;7.27;;;5.50;;
75096;SDS011;63684;47.964;11.186;2023-02-15T09:13:39;6.67;;;5.63;;
75096;SDS011;63684;47.964;11.186;2023-02-15T09:16:05;7.43;;;5.00;;
75096;SDS011;63684;47.964;11.186;2023-02-15T09:18:32;5.97;;;4.70;;
75096;SDS011;63684;47.964;11.186;2023-02-15T09:21:04;9.20;;;5.50;;
75096;SDS011;63684;47.964;11.186;2023-02-15T09:23:33;6.07;;;5.23;;
75096;SDS011;63684;47.964;11.186;2023-02-15T09:26:01;5.70;;;5.10;;
75096;SDS011;63684;47.964;11.186;2023-02-15T09:28:28;7.83;;;4.97;;
75096;SDS011;63684;47.964;11.186;2023-02-15T09:30:53;5.57;;;4.30;;
75096;SDS011;63684;47.964;11.186;2023-02-15T09:33:20;5.40;;;3.83;;
75096;SDS011;63684;47.964;11.186;2023-02-15T09:35:47;5.13;;;3.30;;
75096;SDS011;63684;47.964;11.186;2023-02-15T09:38:12;5.13;;;4.27;;
75096;SDS011;63684;47.964;11.186;2023-02-15T09:40:40;4.43;;;3.67;;
75096;SDS011;63684;47.964;11.186;2023-02-15T09:46:13;4.00;;;3.30;;
75096;SDS011;63684;47.964;11.186;2023-02-15T09:48:43;5.00;;;3.23;;
75096;SDS011;63684;47.964;11.186;2023-02-15T09:53:54;6.23;;;4.00;;
75096;SDS011;63684;47.964;11.186;2023-02-15T09:56:29;9.80;;;4.90;;
75096;SDS011;63684;47.964;11.186;2023-02-15T10:04:49;5.87;;;4.67;;
75096;SDS011;63684;47.964;11.186;2023-02-15T10:10:29;11.77;;;5.47;;
75096;SDS011;63684;47.964;11.186;2023-02-15T10:16:12;7.10;;;5.47;;
75096;SDS011;63684;47.964;11.186;2023-02-15T10:24:18;8.53;;;7.07;;
75096;SDS011;63684;47.964;11.186;2023-02-15T10:26:56;9.47;;;7.40;;
75096;SDS011;63684;47.964;11.186;2023-02-15T10:29:37;11.53;;;9.07;;
75096;SDS011;63684;47.964;11.186;2023-02-15T10:37:52;9.53;;;7.30;;
75096;SDS011;63684;47.964;11.186;2023-02-15T10:48:16;10.00;;;7.87;;
75096;SDS011;63684;47.964;11.186;2023-02-15T10:51:00;10.77;;;7.90;;
75096;SDS011;63684;47.964;11.186;2023-02-15T10:53:50;10.10;;;7.53;;
75096;SDS011;63684;47.964;11.186;2023-02-15T10:59:07;10.93;;;8.03;;
75096;SDS011;63684;47.964;11.186;2023-02-15T11:06:41;13.23;;;8.10;;
75096;SDS011;63684;47.964;11.186;2023-02-15T11:09:11;11.77;;;8.87;;
75096;SDS011;63684;47.964;11.186;2023-02-15T11:11:43;15.07;;;8.97;;
75096;SDS011;63684;47.964;11.186;2023-02-15T11:14:17;13.30;;;8.60;;
75096;SDS011;63684;47.964;11.186;2023-02-15T11:16:50;11.37;;;7.83;;
75096;SDS011;63684;47.964;11.186;2023-02-15T11:19:26;11.07;;;8.50;;
75096;SDS011;63684;47.964;11.186;2023-02-15T11:21:57;11.50;;;8.40;;
75096;SDS011;63684;47.964;11.186;2023-02-15T11:24:26;12.33;;;8.20;;
75096;SDS011;63684;47.964;11.186;2023-02-15T11:26:57;10.27;;;8.30;;
75096;SDS011;63684;47.964;11.186;2023-02-15T11:32:18;10.00;;;7.90;;
75096;SDS011;63684;47.964;11.186;2023-02-15T11:34:58;12.13;;;8.00;;
75096;SDS011;63684;47.964;11.186;2023-02-15T11:38:10;10.77;;;6.07;;
75096;SDS011;63684;47.964;11.186;2023-02-15T11:40:31;6.93;;;5.07;;
75096;SDS011;63684;47.964;11.186;2023-02-15T11:43:28;8.17;;;5.47;;
75096;SDS011;63684;47.964;11.186;2023-02-15T11:46:02;6.47;;;5.07;;
75096;SDS011;63684;47.964;11.186;2023-02-15T11:48:29;7.03;;;5.57;;
75096;SDS011;63684;47.964;11.186;2023-02-15T11:50:55;8.27;;;4.80;;
75096;SDS011;63684;47.964;11.186;2023-02-15T11:53:21;8.27;;;5.57;;
75096;SDS011;63684;47.964;11.186;2023-02-15T11:55:50;8.20;;;4.80;;
75096;SDS011;63684;47.964;11.186;2023-02-15T12:03:48;5.50;;;4.60;;
75096;SDS011;63684;47.964;11.186;2023-02-15T12:06:21;6.97;;;4.23;;
75096;SDS011;63684;47.964;11.186;2023-02-15T12:08:52;4.50;;;4.10;;
75096;SDS011;63684;47.964;11.186;2023-02-15T12:11:22;5.00;;;4.10;;
75096;SDS011;63684;47.964;11.186;2023-02-15T12:13:57;6.33;;;4.60;;
75096;SDS011;63684;47.964;11.186;2023-02-15T12:16:27;4.23;;;3.63;;
75096;SDS011;63684;47.964;11.186;2023-02-15T12:18:54;4.30;;;3.63;;
75096;SDS011;63684;47.964;11.186;2023-02-15T12:21:29;4.27;;;3.57;;
75096;SDS011;63684;47.964;11.186;2023-02-15T12:24:03;7.23;;;4.17;;
75096;SDS011;63684;47.964;11.186;2023-02-15T12:26:44;3.37;;;3.07;;
75096;SDS011;63684;47.964;11.186;2023-02-15T12:29:21;5.43;;;4.13;;
75096;SDS011;63684;47.964;11.186;2023-02-15T12:31:49;5.47;;;4.27;;
75096;SDS011;63684;47.964;11.186;2023-02-15T12:34:32;7.57;;;4.20;;
75096;SDS011;63684;47.964;11.186;2023-02-15T12:37:14;8.83;;;4.63;;
75096;SDS011;63684;47.964;11.186;2023-02-15T12:39:52;6.87;;;4.23;;
75096;SDS011;63684;47.964;11.186;2023-02-15T12:42:20;7.60;;;4.23;;
75096;SDS011;63684;47.964;11.186;2023-02-15T12:45:00;6.57;;;4.40;;
75096;SDS011;63684;47.964;11.186;2023-02-15T12:47:27;4.97;;;4.03;;
75096;SDS011;63684;47.964;11.186;2023-02-15T12:50:11;7.03;;;4.33;;
75096;SDS011;63684;47.964;11.186;2023-02-15T12:52:43;6.37;;;4.50;;
75096;SDS011;63684;47.964;11.186;2023-02-15T13:00:48;7.13;;;4.37;;
75096;SDS011;63684;47.964;11.186;2023-02-15T13:03:28;8.60;;;4.50;;
75096;SDS011;63684;47.964;11.186;2023-02-15T13:05:54;6.37;;;4.83;;
75096;SDS011;63684;47.964;11.186;2023-02-15T13:08:21;6.03;;;4.30;;
75096;SDS011;63684;47.964;11.186;2023-02-15T13:13:33;6.97;;;4.03;;
75096;SDS011;63684;47.964;11.186;2023-02-15T13:16:10;4.97;;;4.33;;
75096;SDS011;63684;47.964;11.186;2023-02-15T13:18:42;7.43;;;4.23;;
75096;SDS011;63684;47.964;11.186;2023-02-15T13:21:19;9.63;;;5.43;;
75096;SDS011;63684;47.964;11.186;2023-02-15T13:23:58;6.90;;;5.07;;
75096;SDS011;63684;47.964;11.186;2023-02-15T13:26:26;8.77;;;5.33;;
75096;SDS011;63684;47.964;11.186;2023-02-15T13:28:55;5.87;;;4.93;;
75096;SDS011;63684;47.964;11.186;2023-02-15T13:31:24;7.93;;;4.67;;
75096;SDS011;63684;47.964;11.186;2023-02-15T13:39:35;7.43;;;4.60;;
75096;SDS011;63684;47.964;11.186;2023-02-15T13:42:23;7.57;;;5.60;;
75096;SDS011;63684;47.964;11.186;2023-02-15T13:50:19;6.63;;;4.47;;
75096;SDS011;63684;47.964;11.186;2023-02-15T13:55:31;7.50;;;4.73;;
75096;SDS011;63684;47.964;11.186;2023-02-15T14:00:52;5.73;;;4.17;;
75096;SDS011;63684;47.964;11.186;2023-02-15T14:03:44;7.90;;;4.97;;
75096;SDS011;63684;47.964;11.186;2023-02-15T14:11:47;7.73;;;4.30;;
75096;SDS011;63684;47.964;11.186;2023-02-15T14:17:29;7.33;;;4.30;;
75096;SDS011;63684;47.964;11.186;2023-02-15T14:19:48;9.87;;;4.97;;
75096;SDS011;63684;47.964;11.186;2023-02-15T14:30:41;5.80;;;4.13;;
75096;SDS011;63684;47.964;11.186;2023-02-15T14:33:18;6.77;;;4.87;;
75096;SDS011;63684;47.964;11.186;2023-02-15T14:35:54;8.80;;;5.27;;
75096;SDS011;63684;47.964;11.186;2023-02-15T14:48:58;24.27;;;13.90;;
75096;SDS011;63684;47.964;11.186;2023-02-15T14:54:10;8.27;;;4.93;;
75096;SDS011;63684;47.964;11.186;2023-02-15T14:56:42;13.90;;;4.50;;
75096;SDS011;63684;47.964;11.186;2023-02-15T15:01:36;6.97;;;5.40;;
75096;SDS011;63684;47.964;11.186;2023-02-15T15:04:06;6.63;;;5.23;;
75096;SDS011;63684;47.964;11.186;2023-02-15T15:06:34;7.10;;;5.10;;
75096;SDS011;63684;47.964;11.186;2023-02-15T15:09:12;12.87;;;5.70;;
75096;SDS011;63684;47.964;11.186;2023-02-15T15:11:50;8.37;;;5.57;;
75096;SDS011;63684;47.964;11.186;2023-02-15T15:16:57;8.17;;;5.43;;
75096;SDS011;63684;47.964;11.186;2023-02-15T15:22:23;7.13;;;5.00;;
75096;SDS011;63684;47.964;11.186;2023-02-15T15:24:50;9.17;;;5.83;;
75096;SDS011;63684;47.964;11.186;2023-02-15T15:27:38;13.03;;;5.47;;
75096;SDS011;63684;47.964;11.186;2023-02-15T15:32:47;7.57;;;5.40;;
75096;SDS011;63684;47.964;11.186;2023-02-15T15:46:17;12.67;;;6.97;;
75096;SDS011;63684;47.964;11.186;2023-02-15T15:49:02;8.60;;;6.23;;
75096;SDS011;63684;47.964;11.186;2023-02-15T15:51:34;11.37;;;6.33;;
75096;SDS011;63684;47.964;11.186;2023-02-15T15:54:01;8.83;;;6.37;;
75096;SDS011;63684;47.964;11.186;2023-02-15T15:56:28;8.60;;;5.60;;
75096;SDS011;63684;47.964;11.186;2023-02-15T15:59:02;9.90;;;6.33;;
75096;SDS011;63684;47.964;11.186;2023-02-15T16:01:34;9.80;;;6.07;;
75096;SDS011;63684;47.964;11.186;2023-02-15T16:04:01;12.10;;;6.97;;
75096;SDS011;63684;47.964;11.186;2023-02-15T16:06:34;10.40;;;6.90;;
75096;SDS011;63684;47.964;11.186;2023-02-15T16:11:42;8.07;;;6.03;;
75096;SDS011;63684;47.964;11.186;2023-02-15T16:14:16;8.80;;;7.47;;
75096;SDS011;63684;47.964;11.186;2023-02-15T16:16:54;13.77;;;7.03;;
75096;SDS011;63684;47.964;11.186;2023-02-15T16:19:22;10.43;;;5.70;;
75096;SDS011;63684;47.964;11.186;2023-02-15T16:21:49;13.80;;;7.70;;
75096;SDS011;63684;47.964;11.186;2023-02-15T16:29:39;7.30;;;5.37;;
75096;SDS011;63684;47.964;11.186;2023-02-15T16:32:37;13.33;;;5.20;;
75096;SDS011;63684;47.964;11.186;2023-02-15T16:35:01;14.43;;;5.33;;
75096;SDS011;63684;47.964;11.186;2023-02-15T16:37:28;16.47;;;9.33;;
75096;SDS011;63684;47.964;11.186;2023-02-15T16:39:57;14.37;;;8.20;;
75096;SDS011;63684;47.964;11.186;2023-02-15T16:42:23;12.27;;;6.20;;
75096;SDS011;63684;47.964;11.186;2023-02-15T16:44:54;15.97;;;7.10;;
75096;SDS011;63684;47.964;11.186;2023-02-15T16:47:24;14.50;;;7.10;;
75096;SDS011;63684;47.964;11.186;2023-02-15T16:49:51;13.13;;;6.23;;
75096;SDS011;63684;47.964;11.186;2023-02-15T16:52:22;10.10;;;6.30;;
75096;SDS011;63684;47.964;11.186;2023-02-15T16:54:50;10.87;;;6.53;;
75096;SDS011;63684;47.964;11.186;2023-02-15T16:57:20;15.07;;;6.63;;
75096;SDS011;63684;47.964;11.186;2023-02-15T16:59:51;13.87;;;6.97;;
75096;SDS011;63684;47.964;11.186;2023-02-15T17:02:21;32.27;;;7.53;;
75096;SDS011;63684;47.964;11.186;2023-02-15T17:05:01;29.67;;;8.43;;
75096;SDS011;63684;47.964;11.186;2023-02-15T17:07:38;20.83;;;7.00;;
75096;SDS011;63684;47.964;11.186;2023-02-15T17:13:04;15.93;;;6.47;;
75096;SDS011;63684;47.964;11.186;2023-02-15T17:15:36;12.73;;;6.43;;
75096;SDS011;63684;47.964;11.186;2023-02-15T17:20:31;19.30;;;6.60;;
75096;SDS011;63684;47.964;11.186;2023-02-15T17:22:58;10.50;;;6.47;;
75096;SDS011;63684;47.964;11.186;2023-02-15T17:25:26;15.50;;;6.97;;
75096;SDS011;63684;47.964;11.186;2023-02-15T17:28:04;8.90;;;6.07;;
75096;SDS011;63684;47.964;11.186;2023-02-15T17:30:32;12.90;;;6.63;;
75096;SDS011;63684;47.964;11.186;2023-02-15T17:33:02;12.77;;;6.67;;
75096;SDS011;63684;47.964;11.186;2023-02-15T17:35:29;10.73;;;6.77;;
75096;SDS011;63684;47.964;11.186;2023-02-15T17:38:04;10.60;;;6.40;;
75096;SDS011;63684;47.964;11.186;2023-02-15T17:40:35;10.80;;;6.60;;
75096;SDS011;63684;47.964;11.186;2023-02-15T17:43:02;10.20;;;6.13;;